createdAt,value
2022-09-28T00:00:13.877Z,11.58
2022-09-28T00:03:02.028Z,11.57
2022-09-28T00:05:32.005Z,11.55
2022-09-28T00:08:00.669Z,11.52
2022-09-28T00:10:28.743Z,11.51
2022-09-28T00:13:00.050Z,11.49
2022-09-28T00:15:28.548Z,11.48
2022-09-28T00:17:56.878Z,11.47
2022-09-28T00:20:25.697Z,11.45
2022-09-28T00:22:54.327Z,11.42
2022-09-28T00:25:24.506Z,11.40
2022-09-28T00:27:52.702Z,11.37
2022-09-28T00:30:21.109Z,11.36
2022-09-28T00:32:51.950Z,11.34
2022-09-28T00:35:25.881Z,11.33
2022-09-28T00:37:55.173Z,11.32
2022-09-28T00:40:26.577Z,11.30
2022-09-28T00:42:56.419Z,11.27
2022-09-28T00:45:28.071Z,11.22
2022-09-28T00:48:01.131Z,11.16
2022-09-28T00:50:34.329Z,11.10
2022-09-28T00:53:11.819Z,11.06
2022-09-28T00:55:46.177Z,11.00
2022-09-28T00:58:22.463Z,10.94
2022-09-28T01:00:52.648Z,10.87
2022-09-28T01:03:23.503Z,10.82
2022-09-28T01:05:55.967Z,10.78
2022-09-28T01:08:29.283Z,10.74
2022-09-28T01:10:57.541Z,10.70
2022-09-28T01:13:25.881Z,10.65
2022-09-28T01:16:01.647Z,10.61
2022-09-28T01:18:36.692Z,10.57
2022-09-28T01:21:06.105Z,10.53
2022-09-28T01:23:56.814Z,10.50
2022-09-28T01:26:46.970Z,10.48
2022-09-28T01:29:21.424Z,10.45
2022-09-28T01:31:53.048Z,10.42
2022-09-28T01:34:30.917Z,10.42
2022-09-28T01:37:01.614Z,10.39
2022-09-28T01:39:32.829Z,10.38
2022-09-28T01:42:04.813Z,10.37
2022-09-28T01:44:39.177Z,10.37
2022-09-28T01:47:10.148Z,10.37
2022-09-28T01:49:41.677Z,10.38
2022-09-28T01:52:13.927Z,10.38
2022-09-28T01:54:45.373Z,10.37
2022-09-28T01:57:17.079Z,10.38
2022-09-28T01:59:49.507Z,10.37
2022-09-28T02:02:22.445Z,10.37
2022-09-28T02:04:53.439Z,10.37
2022-09-28T02:07:24.331Z,10.38
2022-09-28T02:09:57.254Z,10.39
2022-09-28T02:12:31.080Z,10.42
2022-09-28T02:15:05.234Z,10.44
2022-09-28T02:17:33.897Z,10.45
2022-09-28T02:20:02.653Z,10.46
2022-09-28T02:22:36.766Z,10.46
2022-09-28T02:25:10.256Z,10.46
2022-09-28T02:27:42.750Z,10.46
2022-09-28T02:30:12.145Z,10.44
2022-09-28T02:32:44.116Z,10.42
2022-09-28T02:35:14.554Z,10.39
2022-09-28T02:37:42.940Z,10.37
2022-09-28T02:40:14.831Z,10.36
2022-09-28T02:42:51.195Z,10.35
2022-09-28T02:45:30.027Z,10.34
2022-09-28T02:48:10.978Z,10.34
2022-09-28T02:50:44.597Z,10.36
2022-09-28T02:53:26.549Z,10.39
2022-09-28T02:56:08.592Z,10.40
2022-09-28T02:58:42.457Z,10.43
2022-09-28T03:01:19.693Z,10.44
2022-09-28T03:03:53.067Z,10.44
2022-09-28T03:06:26.642Z,10.44
2022-09-28T03:08:59.957Z,10.44
2022-09-28T03:11:32.132Z,10.45
2022-09-28T03:14:00.950Z,10.46
2022-09-28T03:16:31.577Z,10.46
2022-09-28T03:18:59.736Z,10.47
2022-09-28T03:21:27.932Z,10.46
2022-09-28T03:23:56.002Z,10.47
2022-09-28T03:26:24.069Z,10.47
2022-09-28T03:28:52.421Z,10.47
2022-09-28T03:31:20.561Z,10.47
2022-09-28T03:33:48.784Z,10.46
2022-09-28T03:36:17.502Z,10.46
2022-09-28T03:38:45.612Z,10.45
2022-09-28T03:41:13.716Z,10.45
2022-09-28T03:43:41.863Z,10.46
2022-09-28T03:46:10.124Z,10.46
2022-09-28T03:48:39.377Z,10.46
2022-09-28T03:51:09.784Z,10.45
2022-09-28T03:53:38.538Z,10.45
2022-09-28T03:56:10.390Z,10.44
2022-09-28T03:58:38.781Z,10.43
2022-09-28T04:01:12.935Z,10.41
2022-09-28T04:03:44.884Z,10.40
2022-09-28T04:06:13.765Z,10.38
2022-09-28T04:08:42.849Z,10.37
2022-09-28T04:11:11.284Z,10.37
2022-09-28T04:13:39.783Z,10.36
2022-09-28T04:16:09.075Z,10.36
2022-09-28T04:18:38.383Z,10.37
2022-09-28T04:21:10.108Z,10.36
2022-09-28T04:23:39.892Z,10.35
2022-09-28T04:26:11.739Z,10.33
2022-09-28T04:29:00.650Z,10.30
2022-09-28T04:31:36.998Z,10.28
2022-09-28T04:34:05.569Z,10.26
2022-09-28T04:36:33.698Z,10.24
2022-09-28T04:39:01.923Z,10.23
2022-09-28T04:41:30.480Z,10.21
2022-09-28T04:43:58.894Z,10.19
2022-09-28T04:46:27.138Z,10.17
2022-09-28T04:48:55.776Z,10.16
2022-09-28T04:51:24.162Z,10.14
2022-09-28T04:53:52.307Z,10.12
2022-09-28T04:56:20.809Z,10.12
2022-09-28T04:58:52.574Z,10.11
2022-09-28T05:01:23.969Z,10.09
2022-09-28T05:03:52.150Z,10.08
2022-09-28T05:06:22.013Z,10.07
2022-09-28T05:08:50.290Z,10.05
2022-09-28T05:11:19.377Z,10.03
2022-09-28T05:13:48.493Z,10.01
2022-09-28T05:16:17.292Z,10.01
2022-09-28T05:18:45.560Z,10.00
2022-09-28T05:21:14.960Z,9.99
2022-09-28T05:23:47.207Z,9.98
2022-09-28T05:26:16.614Z,9.96
2022-09-28T05:28:44.898Z,9.94
2022-09-28T05:31:13.069Z,9.93
2022-09-28T05:33:41.669Z,9.92
2022-09-28T05:36:10.988Z,9.93
2022-09-28T05:38:39.319Z,9.91
2022-09-28T05:41:07.765Z,9.90
2022-09-28T05:43:36.295Z,9.90
2022-09-28T05:46:04.776Z,9.89
2022-09-28T05:48:32.934Z,9.88
2022-09-28T05:51:01.279Z,9.87
2022-09-28T05:53:29.401Z,9.85
2022-09-28T05:55:58.999Z,9.84
2022-09-28T05:58:28.211Z,9.84
2022-09-28T06:00:56.955Z,9.83
2022-09-28T06:03:25.565Z,9.83
2022-09-28T06:05:53.797Z,9.84
2022-09-28T06:08:24.979Z,9.84
2022-09-28T06:10:53.270Z,9.83
2022-09-28T06:13:21.470Z,9.84
2022-09-28T06:15:49.623Z,9.85
2022-09-28T06:18:17.719Z,9.87
2022-09-28T06:20:46.069Z,9.88
2022-09-28T06:23:14.644Z,9.88
2022-09-28T06:25:42.786Z,9.86
2022-09-28T06:28:12.460Z,9.84
2022-09-28T06:30:41.615Z,9.84
2022-09-28T06:33:12.499Z,9.84
2022-09-28T06:35:40.695Z,9.82
2022-09-28T06:38:09.174Z,9.82
2022-09-28T06:40:38.317Z,9.83
2022-09-28T06:43:09.901Z,9.85
2022-09-28T06:45:38.812Z,9.88
2022-09-28T06:48:07.637Z,9.89
2022-09-28T06:50:37.559Z,9.90
2022-09-28T06:53:10.580Z,9.92
2022-09-28T06:55:40.301Z,9.95
2022-09-28T06:58:10.903Z,10.01
2022-09-28T07:00:39.944Z,10.07
2022-09-28T07:03:12.085Z,10.14
2022-09-28T07:05:42.615Z,10.20
2022-09-28T07:08:11.485Z,10.28
2022-09-28T07:10:43.125Z,10.36
2022-09-28T07:13:34.557Z,10.44
2022-09-28T07:16:01.789Z,10.49
2022-09-28T07:18:30.160Z,10.53
2022-09-28T07:20:59.136Z,10.52
2022-09-28T07:23:29.900Z,10.50
2022-09-28T07:25:58.380Z,10.51
2022-09-28T07:28:26.538Z,10.52
2022-09-28T07:30:57.173Z,10.54
2022-09-28T07:33:32.264Z,10.58
2022-09-28T07:36:05.874Z,10.61
2022-09-28T07:38:34.149Z,10.69
2022-09-28T07:41:11.829Z,10.79
2022-09-28T07:43:40.618Z,10.87
2022-09-28T07:46:11.572Z,10.93
2022-09-28T07:48:45.062Z,10.97
2022-09-28T07:51:13.639Z,11.02
2022-09-28T07:53:42.084Z,11.06
2022-09-28T07:56:16.754Z,11.09
2022-09-28T07:58:50.465Z,11.10
2022-09-28T08:01:19.681Z,11.11
2022-09-28T08:03:52.454Z,11.11
2022-09-28T08:06:22.833Z,11.12
2022-09-28T08:08:56.169Z,11.21
2022-09-28T08:11:26.095Z,11.34
2022-09-28T08:13:59.804Z,11.38
2022-09-28T08:16:29.675Z,11.40
2022-09-28T08:18:59.977Z,11.41
2022-09-28T08:21:47.402Z,11.49
2022-09-28T08:24:24.092Z,11.61
2022-09-28T08:26:57.124Z,11.80
2022-09-28T08:29:32.827Z,11.97
2022-09-28T08:32:06.385Z,12.08
2022-09-28T08:34:35.378Z,12.19
2022-09-28T08:37:04.823Z,12.31
2022-09-28T08:39:35.392Z,12.45
2022-09-28T08:42:15.526Z,12.54
2022-09-28T08:44:47.477Z,12.58
2022-09-28T08:47:38.157Z,12.58
2022-09-28T08:50:10.078Z,12.53
2022-09-28T08:52:40.080Z,12.60
2022-09-28T08:55:13.709Z,12.73
2022-09-28T08:57:48.205Z,12.74
2022-09-28T09:00:31.802Z,12.70
2022-09-28T09:03:05.952Z,12.76
2022-09-28T09:05:47.594Z,12.95
2022-09-28T09:08:36.529Z,13.15
2022-09-28T09:11:13.510Z,13.26
2022-09-28T09:13:51.703Z,13.31
2022-09-28T09:16:40.708Z,13.37
2022-09-28T09:19:16.171Z,13.53
2022-09-28T09:21:54.173Z,13.68
2022-09-28T09:24:28.397Z,13.91
2022-09-28T09:27:08.710Z,14.17
2022-09-28T09:29:50.062Z,14.30
2022-09-28T09:32:38.111Z,14.26
2022-09-28T09:35:16.664Z,14.34
2022-09-28T09:38:05.951Z,14.44
2022-09-28T09:40:44.568Z,14.56
2022-09-28T09:43:32.994Z,14.74
2022-09-28T09:46:12.073Z,15.00
2022-09-28T09:48:47.245Z,15.32
2022-09-28T09:51:28.408Z,15.51
2022-09-28T09:54:00.432Z,15.32
2022-09-28T09:56:34.662Z,15.22
2022-09-28T09:59:08.171Z,15.24
2022-09-28T10:01:36.690Z,15.26
2022-09-28T10:04:06.311Z,15.31
2022-09-28T10:06:36.392Z,15.47
2022-09-28T10:09:08.738Z,15.68
2022-09-28T10:11:39.477Z,15.74
2022-09-28T10:14:12.597Z,15.84
2022-09-28T10:16:42.681Z,15.79
2022-09-28T10:19:12.692Z,15.82
2022-09-28T10:21:46.035Z,15.79
2022-09-28T10:24:28.163Z,15.72
2022-09-28T10:26:58.973Z,15.56
2022-09-28T10:29:44.514Z,15.39
2022-09-28T10:35:49.617Z,15.49
2022-09-28T10:38:35.759Z,15.71
2022-09-28T10:41:13.274Z,15.89
2022-09-28T10:44:06.854Z,16.00
2022-09-28T10:47:02.923Z,15.97
2022-09-28T10:49:46.611Z,15.91
2022-09-28T10:52:39.967Z,16.00
2022-09-28T10:55:36.771Z,16.14
2022-09-28T10:58:32.672Z,16.20
2022-09-28T11:01:09.370Z,16.14
2022-09-28T11:03:51.140Z,15.98
2022-09-28T11:06:27.331Z,15.85
2022-09-28T11:09:03.797Z,15.72
2022-09-28T11:11:40.777Z,15.56
2022-09-28T11:14:24.751Z,15.45
2022-09-28T11:17:17.317Z,15.31
2022-09-28T11:19:47.418Z,15.18
2022-09-28T11:22:29.794Z,15.05
2022-09-28T11:25:23.939Z,14.87
2022-09-28T11:28:04.674Z,14.71
2022-09-28T11:30:40.063Z,14.65
2022-09-28T11:33:14.784Z,14.62
2022-09-28T11:35:55.375Z,14.58
2022-09-28T11:38:34.188Z,14.55
2022-09-28T11:41:28.241Z,14.49
2022-09-28T11:44:23.109Z,14.35
2022-09-28T11:47:08.514Z,14.22
2022-09-28T11:49:40.500Z,14.12
2022-09-28T11:52:17.102Z,14.06
2022-09-28T11:54:52.793Z,14.04
2022-09-28T11:57:25.203Z,14.04
2022-09-28T12:00:08.030Z,14.01
2022-09-28T12:06:02.535Z,13.98
2022-09-28T12:08:41.710Z,13.97
2022-09-28T12:11:21.789Z,14.02
2022-09-28T12:14:01.735Z,14.11
2022-09-28T12:17:04.978Z,14.26
2022-09-28T12:19:43.151Z,14.42
2022-09-28T12:22:25.688Z,14.53
2022-09-28T12:25:00.787Z,14.63
2022-09-28T12:27:45.985Z,14.70
2022-09-28T12:30:40.835Z,14.79
2022-09-28T12:33:17.059Z,14.85
2022-09-28T12:36:04.805Z,14.87
2022-09-28T12:39:21.819Z,14.89
2022-09-28T12:42:22.626Z,14.94
2022-09-28T12:45:08.894Z,14.98
2022-09-28T12:48:18.301Z,14.95
2022-09-28T12:50:58.125Z,14.93
2022-09-28T12:53:53.943Z,14.91
2022-09-28T12:56:30.830Z,14.93
2022-09-28T12:59:14.637Z,14.93
2022-09-28T13:02:15.577Z,14.86
2022-09-28T13:05:05.033Z,14.73
2022-09-28T13:07:45.921Z,14.65
2022-09-28T13:10:25.878Z,14.63
2022-09-28T13:13:23.773Z,14.63
2022-09-28T13:16:15.724Z,14.60
2022-09-28T13:18:56.301Z,14.57
2022-09-28T13:21:38.251Z,14.54
2022-09-28T13:24:32.208Z,14.53
2022-09-28T13:27:11.478Z,14.51
2022-09-28T13:29:45.066Z,14.52
2022-09-28T13:32:18.764Z,14.55
2022-09-28T13:34:52.949Z,14.55
2022-09-28T13:37:25.957Z,14.57
2022-09-28T13:40:07.568Z,14.57
2022-09-28T13:42:53.816Z,14.56
2022-09-28T13:45:58.005Z,14.55
2022-09-28T13:48:42.626Z,14.56
2022-09-28T13:51:31.947Z,14.56
2022-09-28T13:54:22.085Z,14.59
2022-09-28T13:56:57.996Z,14.63
2022-09-28T13:59:32.898Z,14.63
2022-09-28T14:02:12.468Z,14.64
2022-09-28T14:04:59.971Z,14.67
2022-09-28T14:07:59.576Z,14.74
2022-09-28T14:10:49.665Z,14.79
2022-09-28T14:13:55.814Z,14.85
2022-09-28T14:16:31.253Z,14.87
2022-09-28T14:19:07.178Z,14.88
2022-09-28T14:22:05.172Z,14.84
2022-09-28T14:24:51.319Z,14.81
2022-09-28T14:27:45.630Z,14.78
2022-09-28T14:30:29.395Z,14.75
2022-09-28T14:33:02.933Z,14.73
2022-09-28T14:35:41.014Z,14.72
2022-09-28T14:38:36.313Z,14.70
2022-09-28T14:41:11.113Z,14.68
2022-09-28T14:44:03.934Z,14.67
2022-09-28T14:46:48.714Z,14.64
2022-09-28T14:49:50.992Z,14.62
2022-09-28T14:52:42.359Z,14.59
2022-09-28T14:55:26.473Z,14.53
2022-09-28T14:58:06.360Z,14.47
2022-09-28T15:00:41.847Z,14.41
2022-09-28T15:03:16.198Z,14.35
2022-09-28T15:05:52.596Z,14.28
2022-09-28T15:08:38.795Z,14.21
2022-09-28T15:11:15.487Z,14.17
2022-09-28T15:13:47.931Z,14.14
2022-09-28T15:16:23.274Z,14.14
2022-09-28T15:19:31.042Z,14.13
2022-09-28T15:22:06.824Z,14.11
2022-09-28T15:24:40.943Z,14.08
2022-09-28T15:27:24.746Z,14.04
2022-09-28T15:30:13.150Z,14.01
2022-09-28T15:32:47.050Z,13.97
2022-09-28T15:35:20.814Z,13.92
2022-09-28T15:37:53.053Z,13.86
2022-09-28T15:40:31.940Z,13.81
2022-09-28T15:43:03.859Z,13.77
2022-09-28T15:45:37.709Z,13.74
2022-09-28T15:48:27.706Z,13.70
2022-09-28T15:51:10.406Z,13.64
2022-09-28T15:53:51.417Z,13.58
2022-09-28T15:56:23.369Z,13.54
2022-09-28T15:59:11.687Z,13.48
2022-09-28T16:01:45.768Z,13.42
2022-09-28T16:04:44.605Z,13.36
2022-09-28T16:07:25.139Z,13.30
2022-09-28T16:10:35.226Z,13.24
2022-09-28T16:13:16.235Z,13.18
2022-09-28T16:15:50.662Z,13.14
2022-09-28T16:18:23.840Z,13.11
2022-09-28T16:20:57.242Z,13.08
2022-09-28T16:23:31.256Z,13.05
2022-09-28T16:26:06.073Z,13.01
2022-09-28T16:28:53.878Z,12.98
2022-09-28T16:31:37.352Z,12.94
2022-09-28T16:34:20.992Z,12.90
2022-09-28T16:36:55.577Z,12.86
2022-09-28T16:39:27.303Z,12.82
2022-09-28T16:42:03.855Z,12.81
2022-09-28T16:44:37.564Z,12.79
2022-09-28T16:47:09.460Z,12.77
2022-09-28T16:49:41.638Z,12.75
2022-09-28T16:52:34.350Z,12.72
2022-09-28T16:58:10.864Z,12.64
2022-09-28T17:00:43.511Z,12.59
2022-09-28T17:03:19.648Z,12.55
2022-09-28T17:05:52.149Z,12.50
2022-09-28T17:08:25.870Z,12.48
2022-09-28T17:11:14.793Z,12.45
2022-09-28T17:13:50.223Z,12.44
2022-09-28T17:16:37.273Z,12.43
2022-09-28T17:19:21.506Z,12.41
2022-09-28T17:21:53.611Z,12.40
2022-09-28T17:24:25.612Z,12.36
2022-09-28T17:27:00.911Z,12.34
2022-09-28T17:29:33.358Z,12.31
2022-09-28T17:32:08.575Z,12.28
2022-09-28T17:34:40.592Z,12.25
2022-09-28T17:37:14.786Z,12.23
2022-09-28T17:39:46.698Z,12.21
2022-09-28T17:42:18.333Z,12.19
2022-09-28T17:44:50.738Z,12.18
2022-09-28T17:47:22.390Z,12.17
2022-09-28T17:49:54.865Z,12.16
2022-09-28T17:52:26.555Z,12.15
2022-09-28T17:54:58.906Z,12.14
2022-09-28T17:57:30.450Z,12.14
2022-09-28T18:00:02.471Z,12.11
2022-09-28T18:02:34.602Z,12.05
2022-09-28T18:05:07.435Z,11.98
2022-09-28T18:07:40.175Z,11.91
2022-09-28T18:10:18.553Z,11.86
2022-09-28T18:12:50.525Z,11.82
2022-09-28T18:15:22.790Z,11.80
2022-09-28T18:17:54.705Z,11.79
2022-09-28T18:20:27.165Z,11.79
2022-09-28T18:23:01.740Z,11.79
2022-09-28T18:25:34.161Z,11.76
2022-09-28T18:28:06.584Z,11.71
2022-09-28T18:30:42.604Z,11.66
2022-09-28T18:33:15.408Z,11.62
2022-09-28T18:35:55.231Z,11.60
2022-09-28T18:38:26.992Z,11.60
2022-09-28T18:41:07.408Z,11.59
2022-09-28T18:43:39.336Z,11.55
2022-09-28T18:46:12.175Z,11.51
2022-09-28T18:48:44.056Z,11.45
2022-09-28T18:51:16.115Z,11.40
2022-09-28T18:53:48.058Z,11.35
2022-09-28T18:56:21.232Z,11.29
2022-09-28T18:58:52.971Z,11.20
2022-09-28T19:01:30.050Z,11.11
2022-09-28T19:04:08.693Z,11.01
2022-09-28T19:06:42.898Z,10.93
2022-09-28T19:09:13.450Z,10.84
2022-09-28T19:11:45.266Z,10.76
2022-09-28T19:14:18.655Z,10.70
2022-09-28T19:16:50.827Z,10.65
2022-09-28T19:19:22.996Z,10.60
2022-09-28T19:21:59.314Z,10.56
2022-09-28T19:24:32.035Z,10.55
2022-09-28T19:27:04.089Z,10.56
2022-09-28T19:29:35.908Z,10.56
2022-09-28T19:32:07.955Z,10.55
2022-09-28T19:34:40.406Z,10.56
2022-09-28T19:37:12.252Z,10.55
2022-09-28T19:39:45.525Z,10.54
2022-09-28T19:42:19.802Z,10.53
2022-09-28T19:44:51.373Z,10.52
2022-09-28T19:47:26.826Z,10.50
2022-09-28T19:49:59.109Z,10.48
2022-09-28T19:52:30.992Z,10.45
2022-09-28T19:55:02.969Z,10.41
2022-09-28T19:57:37.954Z,10.38
2022-09-28T20:00:16.978Z,10.37
2022-09-28T20:02:54.512Z,10.35
2022-09-28T20:05:30.321Z,10.33
2022-09-28T20:10:38.511Z,10.30
2022-09-28T20:13:10.396Z,10.29
2022-09-28T20:15:42.210Z,10.30
2022-09-28T20:18:16.299Z,10.31
2022-09-28T20:20:46.353Z,10.30
2022-09-28T20:23:21.913Z,10.28
2022-09-28T20:25:56.270Z,10.28
2022-09-28T20:28:28.747Z,10.27
2022-09-28T20:31:06.117Z,10.26
2022-09-28T20:33:39.409Z,10.26
2022-09-28T20:36:14.007Z,10.25
2022-09-28T20:38:48.091Z,10.25
2022-09-28T20:41:22.075Z,10.24
2022-09-28T20:43:56.364Z,10.22
2022-09-28T20:46:28.167Z,10.20
2022-09-28T20:49:00.951Z,10.18
2022-09-28T20:51:32.711Z,10.14
2022-09-28T20:54:04.997Z,10.10
2022-09-28T20:56:41.474Z,10.07
2022-09-28T20:59:15.238Z,10.03
2022-09-28T21:01:47.194Z,10.01
2022-09-28T21:04:19.891Z,9.98
2022-09-28T21:06:52.232Z,9.95
2022-09-28T21:09:25.115Z,9.94
2022-09-28T21:11:56.782Z,9.90
2022-09-28T21:14:28.930Z,9.87
2022-09-28T21:17:00.600Z,9.83
2022-09-28T21:19:32.561Z,9.79
2022-09-28T21:22:04.165Z,9.76
2022-09-28T21:24:35.923Z,9.71
2022-09-28T21:27:07.616Z,9.67
2022-09-28T21:29:39.586Z,9.64
2022-09-28T21:32:11.178Z,9.63
2022-09-28T21:34:44.295Z,9.61
2022-09-28T21:37:16.149Z,9.60
2022-09-28T21:39:56.516Z,9.59
2022-09-28T21:42:31.053Z,9.59
2022-09-28T21:45:03.578Z,9.58
2022-09-28T21:47:35.581Z,9.57
2022-09-28T21:50:08.820Z,9.55
2022-09-28T21:52:40.479Z,9.51
2022-09-28T21:55:12.455Z,9.48
2022-09-28T21:57:44.228Z,9.45
2022-09-28T22:00:17.738Z,9.43
2022-09-28T22:02:49.488Z,9.40
2022-09-28T22:05:22.447Z,9.36
2022-09-28T22:07:54.034Z,9.33
2022-09-28T22:10:26.010Z,9.31
2022-09-28T22:12:57.660Z,9.27
2022-09-28T22:15:29.642Z,9.25
2022-09-28T22:18:01.242Z,9.22
2022-09-28T22:20:33.550Z,9.19
2022-09-28T22:23:05.171Z,9.16
2022-09-28T22:25:37.070Z,9.14
2022-09-28T22:28:08.707Z,9.10
2022-09-28T22:30:40.874Z,9.06
2022-09-28T22:33:12.561Z,9.02
2022-09-28T22:35:44.281Z,9.00
2022-09-28T22:38:15.879Z,8.97
2022-09-28T22:40:51.781Z,8.93
2022-09-28T22:43:24.685Z,8.92
2022-09-28T22:46:05.584Z,8.91
2022-09-28T22:48:37.837Z,8.89
2022-09-28T22:51:09.884Z,8.87
2022-09-28T22:53:41.635Z,8.85
2022-09-28T22:56:18.373Z,8.82
2022-09-28T22:58:50.638Z,8.80
2022-09-28T23:01:24.051Z,8.77
2022-09-28T23:03:57.116Z,8.76
2022-09-28T23:06:30.427Z,8.73
2022-09-28T23:09:02.935Z,8.72
2022-09-28T23:11:35.218Z,8.71
2022-09-28T23:14:06.963Z,8.71
2022-09-28T23:16:38.761Z,8.69
2022-09-28T23:19:10.374Z,8.65
2022-09-28T23:21:42.338Z,8.63
2022-09-28T23:24:14.002Z,8.61
2022-09-28T23:26:46.341Z,8.60
2022-09-28T23:29:18.128Z,8.57
2022-09-28T23:31:50.141Z,8.54
2022-09-28T23:34:21.945Z,8.51
2022-09-28T23:36:56.906Z,8.47
2022-09-28T23:39:28.606Z,8.43
2022-09-28T23:42:00.296Z,8.40
2022-09-28T23:44:32.811Z,8.37
2022-09-28T23:47:04.654Z,8.34
2022-09-28T23:49:37.997Z,8.30
2022-09-28T23:52:09.740Z,8.28
2022-09-28T23:54:41.517Z,8.25
2022-09-28T23:57:13.255Z,8.23
2022-09-28T23:59:44.870Z,8.21
